Time;durP1;ratioP1;P1;durP2;ratioP2;P2;SDS_P1;SDS_P2;PMS_P1;PMS_P2;Temp;Humidity;BMP_temperature;BMP_pressure;BME280_temperature;BME280_humidity;BME280_pressure;Samples;Min_cycle;Max_cycle;Signal;HPM_P1;HPM_P2
2023/08/11 00:00:25;;;;;;;;;5.00;5.00;;;;;-143.90;83.22;75701.50;4917774;28;104248;-76
2023/08/11 00:02:52;;;;;;;;;7.00;5.00;;;;;-143.90;83.84;75697.38;4923058;28;102073;-76
2023/08/11 00:05:49;;;;;;;;;8.00;5.50;;;;;-143.90;83.15;75691.16;4920625;28;102009;-76
2023/08/11 00:08:55;;;;;;;;;5.00;5.00;;;;;-143.90;82.07;75695.31;4921384;28;102638;-77
2023/08/11 00:11:41;;;;;;;;;5.50;5.50;;;;;-143.90;82.24;75701.50;4919137;28;108124;-77
2023/08/11 00:14:26;;;;;;;;;6.50;5.75;;;;;-143.90;82.34;75707.72;4919608;28;102340;-76
2023/08/11 00:17:14;;;;;;;;;3.00;3.00;;;;;-143.90;81.95;75705.66;4921895;28;102177;-76
2023/08/11 00:19:57;;;;;;;;;4.00;3.00;;;;;-143.90;81.31;75709.78;4897938;28;102745;-75
2023/08/11 00:22:28;;;;;;;;;4.75;4.00;;;;;-143.90;81.24;75713.91;4916367;28;103230;-76
2023/08/11 00:24:55;;;;;;;;;2.50;2.50;;;;;-143.90;82.06;75730.47;4915687;28;103956;-76
2023/08/11 00:27:22;;;;;;;;;4.50;4.50;;;;;-143.90;82.96;75744.94;4907294;28;104143;-76
2023/08/11 00:29:49;;;;;;;;;6.00;5.25;;;;;-143.90;83.38;75749.06;4913719;28;102471;-76
2023/08/11 00:32:16;;;;;;;;;9.00;8.75;;;;;-143.90;84.09;75759.41;4916164;28;103702;-76
2023/08/11 00:34:43;;;;;;;;;5.50;5.50;;;;;-143.90;84.53;75759.41;4916964;28;102400;-76
2023/08/11 00:37:10;;;;;;;;;4.75;4.00;;;;;-143.90;85.18;75765.59;4923737;28;102334;-78
2023/08/11 00:39:38;;;;;;;;;5.00;5.00;;;;;-143.90;85.06;75759.41;4921521;28;102062;-76
2023/08/11 00:42:05;;;;;;;;;7.00;6.00;;;;;-143.90;84.90;75747.00;4920497;28;104145;-75
2023/08/11 00:44:32;;;;;;;;;4.00;3.00;;;;;-143.90;84.23;75747.00;4917190;28;103431;-76
2023/08/11 00:47:00;;;;;;;;;4.00;3.50;;;;;-143.90;82.90;75749.06;4914738;28;102966;-76
2023/08/11 00:49:27;;;;;;;;;7.00;6.25;;;;;-143.90;82.60;75751.13;4919698;28;102153;-76
2023/08/11 00:51:54;;;;;;;;;3.75;3.75;;;;;-143.90;81.78;75753.19;4914512;28;104118;-77
2023/08/11 00:54:21;;;;;;;;;6.00;4.00;;;;;-143.90;81.84;75755.28;4912877;28;102455;-75
2023/08/11 00:56:49;;;;;;;;;1.00;1.00;;;;;-143.90;81.94;75771.81;4908032;28;102209;-75
2023/08/11 00:59:21;;;;;;;;;5.75;5.00;;;;;-143.90;82.46;75773.88;4914819;28;102321;-76
2023/08/11 01:01:49;;;;;;;;;3.50;3.50;;;;;-143.90;82.50;75767.69;4897100;28;104068;-76
2023/08/11 01:04:16;;;;;;;;;6.00;4.00;;;;;-143.90;82.62;75769.75;4921227;28;101942;-75
2023/08/11 01:06:58;;;;;;;;;4.25;4.00;;;;;-143.90;82.35;75773.88;4914943;28;102144;-75
2023/08/11 01:09:52;;;;;;;;;4.00;4.00;;;;;-143.90;82.64;75771.81;4912915;28;102406;-76
2023/08/11 01:12:55;;;;;;;;;3.75;3.75;;;;;-143.90;83.11;75765.59;4908898;28;107454;-76
2023/08/11 01:16:04;;;;;;;;;4.50;4.50;;;;;-143.90;83.26;75771.81;4921270;28;102225;-76
2023/08/11 01:18:47;;;;;;;;;4.75;4.75;;;;;-143.90;83.20;75767.69;4912553;28;102677;-75
2023/08/11 01:21:26;;;;;;;;;3.25;2.75;;;;;-143.90;82.31;75767.69;4915746;28;102616;-78
2023/08/11 01:23:54;;;;;;;;;2.00;2.00;;;;;-143.90;81.85;75771.81;4910297;28;103703;-76
2023/08/11 01:26:21;;;;;;;;;3.00;3.00;;;;;-143.90;81.75;75771.81;4900419;28;102418;-77
2023/08/11 01:28:53;;;;;;;;;4.00;4.00;;;;;-143.90;81.29;75775.94;4913810;28;102395;-75
2023/08/11 01:31:20;;;;;;;;;6.00;5.00;;;;;-143.90;80.96;75775.94;4913524;28;103574;-76
2023/08/11 01:33:47;;;;;;;;;3.25;2.75;;;;;-143.90;81.12;75780.09;4885843;28;104901;-76
2023/08/11 01:36:14;;;;;;;;;3.00;3.00;;;;;-143.90;81.37;75780.09;4908882;28;102350;-75
2023/08/11 01:38:42;;;;;;;;;2.75;2.75;;;;;-143.90;82.65;75792.50;4912853;28;102797;-75
2023/08/11 01:41:09;;;;;;;;;5.00;3.50;;;;;-143.90;83.18;75796.63;4903009;28;102444;-78
2023/08/11 01:43:42;;;;;;;;;3.00;3.00;;;;;-143.90;83.29;75794.56;4889935;28;103969;-78
2023/08/11 01:46:17;;;;;;;;;4.00;4.00;;;;;-143.90;83.04;75794.56;4917475;28;102031;-76
2023/08/11 01:49:01;;;;;;;;;5.25;5.00;;;;;-143.90;82.52;75800.75;4917028;28;102515;-75
2023/08/11 01:51:29;;;;;;;;;6.00;4.25;;;;;-143.90;82.20;75796.63;4915644;28;102407;-76
2023/08/11 01:53:56;;;;;;;;;6.75;6.75;;;;;-143.90;81.98;75802.81;4921252;28;104082;-77
2023/08/11 01:56:25;;;;;;;;;9.00;8.00;;;;;-143.90;82.60;75813.16;4913271;28;102521;-76
2023/08/11 01:58:52;;;;;;;;;9.50;9.00;;;;;-143.90;82.91;75815.22;4905849;28;102527;-76
2023/08/11 02:01:19;;;;;;;;;10.75;8.25;;;;;-143.90;83.21;75817.31;4927183;28;102396;-75
2023/08/11 02:03:46;;;;;;;;;7.25;7.00;;;;;-143.90;82.81;75813.16;4921880;28;104891;-76
2023/08/11 02:06:14;;;;;;;;;5.00;5.00;;;;;-143.90;82.59;75804.91;4926512;28;102520;-76
2023/08/11 02:08:41;;;;;;;;;5.00;4.75;;;;;-143.90;81.97;75809.03;4925195;28;102180;-75
2023/08/11 02:11:08;;;;;;;;;5.00;5.00;;;;;-143.90;82.23;75813.16;4905990;28;104866;-75
2023/08/11 02:13:35;;;;;;;;;5.50;5.50;;;;;-143.90;82.08;75813.16;4923799;28;104279;-76
2023/08/11 02:16:03;;;;;;;;;5.75;5.00;;;;;-143.90;81.68;75811.09;4922693;28;102373;-76
2023/08/11 02:18:39;;;;;;;;;5.00;3.50;;;;;-143.90;82.10;75813.16;4924524;28;102206;-76
2023/08/11 02:21:40;;;;;;;;;5.00;5.00;;;;;-143.90;82.52;75817.31;4923676;28;101915;-75
2023/08/11 02:24:32;;;;;;;;;4.75;4.00;;;;;-143.90;83.57;75827.63;4917363;28;107836;-76
2023/08/11 02:26:59;;;;;;;;;5.00;4.00;;;;;-143.90;84.01;75821.44;4926163;28;102544;-77
2023/08/11 02:29:40;;;;;;;;;5.00;5.00;;;;;-143.90;84.01;75825.56;4922489;28;102485;-76
2023/08/11 02:32:14;;;;;;;;;4.00;4.00;;;;;-143.90;83.92;75821.44;4926550;28;102694;-75
2023/08/11 02:34:42;;;;;;;;;4.00;4.00;;;;;-143.90;83.66;75831.78;4920118;28;104123;-75
2023/08/11 02:37:09;;;;;;;;;1.00;1.00;;;;;-143.90;83.60;75825.56;4916300;28;103862;-75
2023/08/11 02:39:36;;;;;;;;;3.75;3.75;;;;;-143.90;82.37;75829.72;4928672;28;102443;-76
2023/08/11 02:42:06;;;;;;;;;3.00;3.00;;;;;-143.90;81.67;75844.19;4922257;28;102338;-76
2023/08/11 02:44:33;;;;;;;;;4.00;4.00;;;;;-143.90;82.03;75846.25;4925484;28;103965;-76
2023/08/11 02:47:01;;;;;;;;;6.00;5.25;;;;;-143.90;82.27;75852.44;4928502;28;102446;-77
2023/08/11 02:49:28;;;;;;;;;5.25;5.00;;;;;-143.90;81.98;75844.19;4926183;28;103074;-76
2023/08/11 02:51:55;;;;;;;;;5.00;4.50;;;;;-143.90;82.02;75850.38;4907313;28;102054;-76
2023/08/11 02:54:22;;;;;;;;;4.00;4.00;;;;;-143.90;82.05;75852.44;4919573;28;104046;-76
2023/08/11 02:56:49;;;;;;;;;4.50;4.25;;;;;-143.90;82.43;75858.66;4921501;28;104560;-77
2023/08/11 02:59:16;;;;;;;;;4.25;4.25;;;;;-143.90;82.11;75856.59;4917463;28;103853;-76
2023/08/11 03:02:02;;;;;;;;;4.25;4.25;;;;;-143.90;82.51;75854.53;4922640;28;102476;-76
2023/08/11 03:05:01;;;;;;;;;4.75;4.75;;;;;-143.90;82.31;75856.59;4895666;28;107398;-75
2023/08/11 03:07:35;;;;;;;;;7.50;6.00;;;;;-143.90;81.94;75866.94;4920375;28;102355;-76
2023/08/11 03:10:03;;;;;;;;;7.00;5.50;;;;;-143.90;81.97;75864.84;4922175;28;102656;-77
2023/08/11 03:12:30;;;;;;;;;2.25;2.25;;;;;-143.90;81.73;75871.06;4921019;28;102261;-75
2023/08/11 03:14:57;;;;;;;;;5.25;4.50;;;;;-143.90;80.96;75871.06;4924137;28;106089;-75
2023/08/11 03:17:24;;;;;;;;;4.00;3.00;;;;;-143.90;81.20;75875.19;4923161;28;102382;-75
2023/08/11 03:19:51;;;;;;;;;6.00;6.00;;;;;-143.90;82.62;75900.00;4920646;28;102453;-75
2023/08/11 03:22:19;;;;;;;;;6.00;5.75;;;;;-143.90;84.18;75916.56;4923737;28;102420;-75
2023/08/11 03:24:46;;;;;;;;;8.00;6.00;;;;;-143.90;84.84;75902.06;4925100;28;104128;-75
2023/08/11 03:27:14;;;;;;;;;8.00;5.75;;;;;-143.90;84.81;75900.00;4922300;28;103798;-78
2023/08/11 03:29:42;;;;;;;;;4.50;4.50;;;;;-143.90;85.11;75893.81;4921146;28;103092;-78
2023/08/11 03:32:09;;;;;;;;;5.50;4.75;;;;;-143.90;84.70;75891.75;4924430;28;102249;-76
2023/08/11 03:34:37;;;;;;;;;5.25;5.00;;;;;-143.90;84.33;75887.59;4927375;28;103048;-76
2023/08/11 03:37:06;;;;;;;;;6.00;5.00;;;;;-143.90;83.79;75887.59;4918364;28;102647;-75
2023/08/11 03:39:33;;;;;;;;;4.00;4.00;;;;;-143.90;83.54;75887.59;4922608;28;102147;-77
2023/08/11 03:42:00;;;;;;;;;5.00;5.00;;;;;-143.90;83.36;75885.53;4921227;28;103140;-76
2023/08/11 03:44:27;;;;;;;;;4.00;3.00;;;;;-143.90;83.00;75883.47;4916005;28;104035;-75
2023/08/11 03:46:54;;;;;;;;;5.50;4.50;;;;;-143.90;82.87;75887.59;4916742;28;102313;-76
2023/08/11 03:49:21;;;;;;;;;3.00;3.00;;;;;-143.90;82.99;75879.34;4920108;28;102391;-76
2023/08/11 03:51:48;;;;;;;;;4.25;4.25;;;;;-143.90;82.59;75875.19;4924004;28;102295;-75
2023/08/11 03:54:15;;;;;;;;;9.75;5.00;;;;;-143.90;82.93;75875.19;4915513;28;103901;-78
2023/08/11 03:56:44;;;;;;;;;4.00;3.25;;;;;-143.90;84.00;75879.34;4920635;28;102456;-78
2023/08/11 03:59:11;;;;;;;;;5.00;4.00;;;;;-143.90;85.20;75879.34;4917735;28;103101;-78
2023/08/11 04:01:38;;;;;;;;;4.25;4.25;;;;;-143.90;85.68;75875.19;4919519;28;102597;-78
2023/08/11 04:04:06;;;;;;;;;6.75;6.00;;;;;-143.90;85.65;75866.94;4916388;28;104384;-78
2023/08/11 04:06:33;;;;;;;;;1.50;1.50;;;;;-143.90;85.50;75864.84;4920375;28;102361;-77
2023/08/11 04:09:00;;;;;;;;;6.00;5.00;;;;;-143.90;84.92;75864.84;4923368;28;102161;-77
2023/08/11 04:12:06;;;;;;;;;4.00;3.50;;;;;-143.90;85.72;75862.78;4917845;28;102607;-77
2023/08/11 04:14:52;;;;;;;;;5.00;5.00;;;;;-143.90;86.10;75860.72;4922283;28;108338;-77
2023/08/11 04:17:33;;;;;;;;;4.00;3.00;;;;;-143.90;86.65;75854.53;4920306;28;102392;-77
2023/08/11 04:20:01;;;;;;;;;3.25;2.75;;;;;-143.90;86.37;75850.38;4920400;28;102329;-77
2023/08/11 04:22:28;;;;;;;;;4.00;4.00;;;;;-143.90;86.31;75842.13;4918828;28;104322;-77
2023/08/11 04:25:20;;;;;;;;;5.00;3.75;;;;;-143.90;86.06;75831.78;4917780;28;109300;-77
2023/08/11 04:27:52;;;;;;;;;3.00;3.00;;;;;-143.90;85.78;75827.63;4916065;28;102145;-76
2023/08/11 04:30:19;;;;;;;;;3.25;2.75;;;;;-143.90;85.84;75815.22;4924856;28;103743;-77
2023/08/11 04:32:46;;;;;;;;;4.00;4.00;;;;;-143.90;86.36;75809.03;4925646;28;102456;-76
2023/08/11 04:35:25;;;;;;;;;3.00;3.00;;;;;-143.90;86.62;75796.63;4915122;28;104806;-77
2023/08/11 04:37:59;;;;;;;;;5.00;4.00;;;;;-143.90;86.36;75782.16;4923121;28;102083;-76
2023/08/11 04:40:27;;;;;;;;;3.50;3.50;;;;;-143.90;86.34;75773.88;4921870;28;102168;-76
2023/08/11 04:42:54;;;;;;;;;3.00;3.00;;;;;-143.90;86.37;75771.81;4924894;28;102763;-76
2023/08/11 04:45:21;;;;;;;;;6.25;4.00;;;;;-143.90;86.54;75755.28;4923784;28;103933;-76
2023/08/11 04:47:48;;;;;;;;;4.00;4.00;;;;;-143.90;86.61;75742.88;4924342;28;103919;-76
2023/08/11 04:50:15;;;;;;;;;3.75;3.75;;;;;-143.90;86.58;75730.47;4922819;28;101907;-76
2023/08/11 04:52:42;;;;;;;;;3.00;3.00;;;;;-143.90;86.94;75713.91;4922328;28;103817;-76
2023/08/11 04:55:12;;;;;;;;;6.00;5.00;;;;;-143.90;86.75;75689.09;4915214;28;108779;-76
2023/08/11 04:57:50;;;;;;;;;4.00;4.00;;;;;-143.90;86.95;75651.88;4919684;28;102150;-76
2023/08/11 05:00:33;;;;;;;;;8.00;8.00;;;;;-143.90;86.40;75614.66;4914883;28;102363;-76
2023/08/11 05:03:00;;;;;;;;;6.00;6.00;;;;;-143.90;85.06;75569.19;4920250;28;103065;-75
2023/08/11 05:05:27;;;;;;;;;9.75;9.50;;;;;-143.90;82.91;75534.03;4921372;28;103946;-76
2023/08/11 05:07:59;;;;;;;;;15.25;13.00;;;;;-143.90;81.29;75498.88;4919694;28;102994;-76
2023/08/11 05:10:27;;;;;;;;;11.00;11.00;;;;;-143.90;80.13;75472.00;4921881;28;102007;-76
2023/08/11 05:12:54;;;;;;;;;12.00;9.00;;;;;-143.90;78.94;75455.47;4915555;28;103890;-76
2023/08/11 05:15:21;;;;;;;;;11.50;9.50;;;;;-143.90;78.85;75430.66;4926255;28;104166;-76
2023/08/11 05:17:48;;;;;;;;;11.25;11.25;;;;;-143.90;77.68;75407.91;4910802;28;102123;-77
2023/08/11 05:20:15;;;;;;;;;8.00;8.00;;;;;-143.90;75.73;75387.22;4928835;28;102371;-79
2023/08/11 05:22:44;;;;;;;;;13.75;13.25;;;;;-143.90;76.18;75356.22;4918069;28;102275;-76
2023/08/11 05:25:11;;;;;;;;;13.25;12.25;;;;;-143.90;74.96;75329.34;4882959;28;105378;-77
2023/08/11 05:27:38;;;;;;;;;18.75;17.50;;;;;-143.90;74.15;75290.06;4916786;28;103764;-76
2023/08/11 05:30:07;;;;;;;;;22.00;21.25;;;;;-143.90;72.66;75273.53;4918367;28;102349;-76
2023/08/11 05:32:34;;;;;;;;;30.50;28.50;;;;;-143.90;72.36;75232.19;4918037;28;101999;-77
2023/08/11 05:35:02;;;;;;;;;18.50;17.75;;;;;-143.90;69.59;75201.16;4918062;28;103446;-76
2023/08/11 05:37:29;;;;;;;;;17.50;16.25;;;;;-143.90;67.30;75176.34;4922044;28;102364;-76
2023/08/11 05:39:56;;;;;;;;;25.00;24.00;;;;;-143.90;68.49;75147.41;4919518;28;102271;-76
2023/08/11 05:42:23;;;;;;;;;29.75;24.75;;;;;-143.90;68.83;75118.47;4884722;28;102596;-76
2023/08/11 05:44:50;;;;;;;;;20.50;20.50;;;;;-143.90;66.62;75097.78;4915669;28;104048;-77
2023/08/11 05:47:18;;;;;;;;;17.75;15.25;;;;;-143.90;65.15;75085.38;4922281;28;102372;-76
2023/08/11 05:49:45;;;;;;;;;27.00;24.00;;;;;-143.90;67.39;75048.19;4922401;28;102139;-77
2023/08/11 05:52:12;;;;;;;;;21.00;19.00;;;;;-143.90;65.83;75027.50;4922380;28;103383;-76
2023/08/11 05:54:39;;;;;;;;;23.50;21.75;;;;;-143.90;66.26;74990.28;4875317;28;104180;-76
2023/08/11 05:57:07;;;;;;;;;20.00;18.00;;;;;-143.90;61.95;74988.22;4902368;28;102072;-77
2023/08/11 05:59:34;;;;;;;;;18.50;18.50;;;;;-143.90;63.89;74963.41;4923744;28;103625;-76
2023/08/11 06:02:01;;;;;;;;;18.25;16.50;;;;;-143.90;62.95;74948.94;4918726;28;102115;-76
2023/08/11 06:04:28;;;;;;;;;22.50;22.00;;;;;-143.90;64.51;74915.88;4887041;28;104076;-77
2023/08/11 06:06:55;;;;;;;;;24.25;22.75;;;;;-143.90;62.80;74891.06;4913829;28;102122;-76
2023/08/11 06:09:22;;;;;;;;;15.75;15.50;;;;;-143.90;60.46;74872.47;4920395;28;102285;-77
2023/08/11 06:11:50;;;;;;;;;18.25;15.25;;;;;-143.90;59.62;74851.78;4924944;28;102124;-77
2023/08/11 06:14:17;;;;;;;;;13.67;12.00;;;;;-143.90;59.99;74839.38;4909800;28;104043;-76
2023/08/11 06:16:44;;;;;;;;;17.00;15.50;;;;;-143.90;59.52;74835.25;4893507;28;102662;-78
2023/08/11 06:19:12;;;;;;;;;15.33;14.00;;;;;-143.90;57.95;74829.03;4847756;28;102313;-78
2023/08/11 06:21:39;;;;;;;;;8.00;8.00;;;;;-143.90;57.62;74820.78;4920600;28;102568;-77
2023/08/11 06:24:06;;;;;;;;;10.00;9.00;;;;;-143.90;57.43;74824.91;4915320;28;104249;-77
2023/08/11 06:26:35;;;;;;;;;8.00;8.00;;;;;-143.90;57.06;74812.50;4912873;28;104049;-77
2023/08/11 06:29:04;;;;;;;;;11.67;11.00;;;;;-143.90;58.67;74812.50;4919131;28;102285;-77
2023/08/11 06:31:31;;;;;;;;;8.67;8.67;;;;;-143.90;55.80;74802.16;4917288;28;104580;-77
2023/08/11 06:33:58;;;;;;;;;9.00;9.00;;;;;-143.90;55.90;74802.16;4921406;28;104059;-77
2023/08/11 06:36:26;;;;;;;;;11.33;8.33;;;;;-143.90;57.09;74793.91;4916323;28;102549;-77
2023/08/11 06:38:53;;;;;;;;;8.00;8.00;;;;;-143.90;55.04;74795.97;4920884;28;101936;-77
2023/08/11 06:41:20;;;;;;;;;9.00;7.33;;;;;-143.90;56.03;74785.63;4910007;28;104685;-78
2023/08/11 06:43:47;;;;;;;;;6.33;6.00;;;;;-143.90;55.38;74783.56;4924048;28;104002;-76
2023/08/11 06:46:15;;;;;;;;;7.00;6.00;;;;;-143.90;56.23;74758.75;4920401;28;102210;-77
2023/08/11 06:48:42;;;;;;;;;11.00;10.33;;;;;-143.90;58.16;74746.34;4924214;28;102333;-77
2023/08/11 06:51:09;;;;;;;;;7.00;7.00;;;;;-143.90;55.37;74742.22;4927139;28;101974;-78
2023/08/11 06:53:36;;;;;;;;;7.67;7.67;;;;;-143.90;55.32;74731.88;4915741;28;104005;-78
2023/08/11 06:56:03;;;;;;;;;10.67;10.00;;;;;-143.90;57.03;74721.56;4925695;28;102653;-77
2023/08/11 06:58:30;;;;;;;;;7.00;6.67;;;;;-143.90;54.22;74717.41;4923518;28;103186;-77
2023/08/11 07:00:57;;;;;;;;;8.00;6.67;;;;;-143.90;55.09;74705.00;4926287;28;102037;-77
2023/08/11 07:03:24;;;;;;;;;6.00;5.00;;;;;-143.90;53.21;74698.81;4911018;28;103793;-77
2023/08/11 07:05:51;;;;;;;;;4.67;4.67;;;;;-143.90;52.73;74694.69;4923916;28;102063;-78
2023/08/11 07:08:19;;;;;;;;;4.33;4.00;;;;;-143.90;52.33;74674.00;4913861;28;102476;-77
2023/08/11 07:10:46;;;;;;;;;3.33;3.33;;;;;-143.90;52.70;74655.41;4923919;28;102308;-77
2023/08/11 07:13:13;;;;;;;;;4.67;4.33;;;;;-143.90;53.85;74651.28;4924400;28;104020;-76
2023/08/11 07:15:42;;;;;;;;;7.00;7.00;;;;;-143.90;54.61;74655.41;4922639;28;102578;-77
2023/08/11 07:18:10;;;;;;;;;7.67;7.67;;;;;-143.90;54.64;74655.41;4902065;28;102459;-77
2023/08/11 07:20:42;;;;;;;;;5.67;5.67;;;;;-143.90;53.61;74647.13;4917418;28;102400;-77
2023/08/11 07:23:10;;;;;;;;;6.00;5.33;;;;;-143.90;53.44;74638.88;4928600;28;103927;-77
2023/08/11 07:25:37;;;;;;;;;4.33;4.33;;;;;-143.90;54.01;74622.34;4910410;28;102289;-76
2023/08/11 07:28:04;;;;;;;;;4.00;4.00;;;;;-143.90;53.83;74609.94;4913393;28;103264;-77
2023/08/11 07:30:31;;;;;;;;;6.00;5.00;;;;;-143.90;54.94;74605.78;4927731;28;102619;-76
2023/08/11 07:33:00;;;;;;;;;4.67;4.00;;;;;-143.90;54.14;74589.25;4920291;28;104036;-77
2023/08/11 07:35:28;;;;;;;;;5.67;5.00;;;;;-143.90;53.81;74572.72;4925778;28;102374;-77
2023/08/11 07:37:55;;;;;;;;;5.33;5.00;;;;;-143.90;52.92;74560.31;4921867;28;104180;-77
2023/08/11 07:40:23;;;;;;;;;7.33;5.00;;;;;-143.90;52.70;74549.97;4911835;28;103049;-77
2023/08/11 07:42:50;;;;;;;;;4.00;4.00;;;;;-143.90;50.89;74535.50;4924701;28;104189;-78
2023/08/11 07:45:18;;;;;;;;;4.00;4.00;;;;;-143.90;51.47;74531.38;4927724;28;102097;-77
2023/08/11 07:47:46;;;;;;;;;3.00;3.00;;;;;-143.90;52.01;74523.09;4918388;28;102325;-77
2023/08/11 07:50:14;;;;;;;;;6.00;6.00;;;;;-143.90;50.44;74508.63;4925630;28;102830;-77
2023/08/11 07:52:41;;;;;;;;;5.00;5.00;;;;;-143.90;51.53;74523.09;4925170;28;103261;-77
2023/08/11 07:55:08;;;;;;;;;2.67;2.67;;;;;-143.90;51.85;74512.78;4921827;28;102047;-77
2023/08/11 07:57:36;;;;;;;;;2.67;2.67;;;;;-143.90;50.65;74494.16;4921494;28;102494;-77
2023/08/11 08:00:05;;;;;;;;;4.67;4.00;;;;;-143.90;53.12;74477.63;4912946;28;102175;-77
2023/08/11 08:02:32;;;;;;;;;4.67;4.67;;;;;-143.90;52.46;74471.44;4894236;28;104001;-76
2023/08/11 08:04:59;;;;;;;;;3.33;2.67;;;;;-143.90;49.69;74461.09;4905778;28;101990;-77
2023/08/11 08:07:38;;;;;;;;;2.67;2.67;;;;;-143.90;49.06;74450.75;4908067;28;102566;-77
2023/08/11 08:10:08;;;;;;;;;4.67;4.00;;;;;-143.90;50.14;74436.28;4918133;28;102611;-76
2023/08/11 08:12:36;;;;;;;;;3.67;3.67;;;;;-143.90;51.70;74428.03;4904128;28;105313;-77
2023/08/11 08:15:09;;;;;;;;;3.33;3.33;;;;;-143.90;51.06;74423.88;4908858;28;102400;-76
2023/08/11 08:17:37;;;;;;;;;3.67;3.00;;;;;-143.90;47.59;74413.56;4920630;28;102090;-78
2023/08/11 08:20:09;;;;;;;;;5.00;4.33;;;;;-143.90;44.54;74428.03;4911195;28;102665;-78
2023/08/11 08:22:36;;;;;;;;;5.00;4.00;;;;;-143.90;44.68;74428.03;4918939;28;104274;-77
2023/08/11 08:25:07;;;;;;;;;4.00;4.00;;;;;-143.90;44.61;74413.56;4922573;28;102359;-78
2023/08/11 08:27:39;;;;;;;;;2.00;2.00;;;;;-143.90;46.90;74425.97;4917711;28;102326;-77
2023/08/11 08:30:09;;;;;;;;;2.00;2.00;;;;;-143.90;46.26;74415.63;4919798;28;102347;-78
2023/08/11 08:32:40;;;;;;;;;3.67;3.67;;;;;-143.90;45.83;74415.63;4912364;28;104018;-77
2023/08/11 08:35:09;;;;;;;;;4.00;4.00;;;;;-143.90;45.60;74407.34;4923338;28;102610;-77
2023/08/11 08:37:36;;;;;;;;;2.67;2.67;;;;;-143.90;45.71;74388.75;4922125;28;102844;-77
2023/08/11 08:40:08;;;;;;;;;3.00;3.00;;;;;-143.90;47.02;74378.41;4918910;28;102265;-77
2023/08/11 08:42:36;;;;;;;;;3.00;3.00;;;;;-143.90;45.85;74388.75;4919137;28;104314;-78
2023/08/11 08:45:04;;;;;;;;;3.00;3.00;;;;;-143.90;44.35;74374.28;4919561;28;101805;-77
2023/08/11 08:47:32;;;;;;;;;2.00;2.00;;;;;-143.90;46.35;74361.88;4922376;28;101999;-78
2023/08/11 08:50:01;;;;;;;;;1.00;1.00;;;;;-143.90;44.65;74341.22;4904690;28;102415;-77
2023/08/11 08:52:28;;;;;;;;;2.00;2.00;;;;;-143.90;45.35;74330.88;4923912;28;103873;-77
2023/08/11 08:54:56;;;;;;;;;2.00;2.00;;;;;-143.90;45.82;74304.00;4922046;28;102211;-77
2023/08/11 08:57:26;;;;;;;;;2.00;2.00;;;;;-143.90;44.75;74293.66;4920213;28;102476;-77
2023/08/11 08:59:55;;;;;;;;;2.00;2.00;;;;;-143.90;43.50;74287.47;4923670;28;102414;-77
2023/08/11 09:02:30;;;;;;;;;2.00;2.00;;;;;-143.90;44.04;74301.94;4921066;28;108514;-78
2023/08/11 09:04:58;;;;;;;;;2.00;2.00;;;;;-143.90;41.18;74289.53;4914568;28;102260;-80
2023/08/11 09:07:25;;;;;;;;;3.00;3.00;;;;;-143.90;42.27;74304.00;4922236;28;102151;-77
2023/08/11 09:09:52;;;;;;;;;1.67;1.00;;;;;-143.90;41.46;74283.34;4927057;28;102903;-77
2023/08/11 09:12:19;;;;;;;;;2.00;2.00;;;;;-143.90;40.20;74275.06;4899537;28;104014;-77
2023/08/11 09:14:49;;;;;;;;;1.67;1.67;;;;;-143.90;41.55;74279.22;4908117;28;102503;-77
2023/08/11 09:17:16;;;;;;;;;3.00;3.00;;;;;-143.90;41.55;74287.47;4915226;28;102434;-77
2023/08/11 09:19:47;;;;;;;;;3.00;2.67;;;;;-143.90;42.13;74297.81;4924331;28;102093;-77
2023/08/11 09:22:14;;;;;;;;;4.00;4.00;;;;;-143.90;42.05;74283.34;4920831;28;103987;-76
2023/08/11 09:24:45;;;;;;;;;2.00;2.00;;;;;-143.90;42.71;74285.41;4919628;28;102867;-79
2023/08/11 09:27:13;;;;;;;;;3.00;3.00;;;;;-143.90;42.17;74279.22;4919301;28;103620;-76
2023/08/11 09:29:40;;;;;;;;;3.00;2.67;;;;;-143.90;41.30;74273.00;4923265;28;102192;-78
2023/08/11 09:32:07;;;;;;;;;2.00;1.00;;;;;-143.90;42.03;74258.53;4921675;28;104050;-77
2023/08/11 09:34:38;;;;;;;;;2.00;2.00;;;;;-143.90;38.48;74273.00;4918921;28;102041;-77
2023/08/11 09:37:05;;;;;;;;;2.67;2.67;;;;;-143.90;37.94;74277.13;4915966;28;102726;-76
2023/08/11 09:39:34;;;;;;;;;1.00;1.00;;;;;-143.90;37.86;74279.22;4915175;28;102356;-76
2023/08/11 09:42:01;;;;;;;;;1.33;1.33;;;;;-143.90;39.57;74256.47;4921368;28;103971;-77
2023/08/11 09:44:28;;;;;;;;;1.00;1.00;;;;;-143.90;40.49;74248.19;4923784;28;102220;-76
2023/08/11 09:46:55;;;;;;;;;2.00;2.00;;;;;-143.90;37.90;74239.94;4922746;28;102406;-77
2023/08/11 09:49:23;;;;;;;;;1.00;1.00;;;;;-143.90;39.39;74225.47;4913999;28;103365;-76
2023/08/11 09:51:54;;;;;;;;;1.00;1.00;;;;;-143.90;38.16;74225.47;4909966;28;104030;-76
2023/08/11 09:54:23;;;;;;;;;2.00;1.33;;;;;-143.90;38.24;74213.06;4922770;28;102388;-77
2023/08/11 09:56:53;;;;;;;;;1.00;1.00;;;;;-143.90;38.20;74244.06;4904386;28;102478;-76
2023/08/11 09:59:20;;;;;;;;;1.00;1.00;;;;;-143.90;39.18;74223.41;4914584;28;102620;-76
2023/08/11 10:01:51;;;;;;;;;2.00;2.00;;;;;-143.90;39.24;74213.06;4918373;28;104008;-77
2023/08/11 10:04:34;;;;;;;;;1.67;1.00;;;;;-143.90;37.53;74200.66;4922380;28;103508;-77
2023/08/11 10:07:07;;;;;;;;;2.00;2.00;;;;;-143.90;36.63;74204.78;4918625;28;102142;-77
2023/08/11 10:09:36;;;;;;;;;2.00;2.00;;;;;-143.90;37.53;74188.25;4922561;28;102296;-76
2023/08/11 10:12:06;;;;;;;;;1.00;1.00;;;;;-143.90;36.87;74188.25;4921774;28;103960;-76
2023/08/11 10:14:36;;;;;;;;;2.00;2.00;;;;;-143.90;36.69;74173.78;4919377;28;102105;-76
2023/08/11 10:17:03;;;;;;;;;1.00;1.00;;;;;-143.90;34.56;74177.94;4923790;28;102397;-77
2023/08/11 10:19:31;;;;;;;;;0.00;0.00;;;;;-143.90;37.20;74167.59;4923731;28;102598;-76
2023/08/11 10:21:58;;;;;;;;;1.00;1.00;;;;;-143.90;37.78;74142.78;4925828;28;104464;-78
2023/08/11 10:24:26;;;;;;;;;1.00;1.00;;;;;-143.90;35.66;74167.59;4926591;28;102297;-76
2023/08/11 10:26:53;;;;;;;;;1.00;1.00;;;;;-143.90;37.74;74163.47;4927393;28;102239;-77
2023/08/11 10:29:21;;;;;;;;;1.33;1.00;;;;;-143.90;35.97;74142.78;4925650;28;102650;-76
2023/08/11 10:31:57;;;;;;;;;2.00;1.67;;;;;-143.90;34.74;74128.31;4922879;28;105072;-76
2023/08/11 10:34:25;;;;;;;;;1.00;1.00;;;;;-143.90;35.27;74122.13;4924684;28;102451;-76
2023/08/11 10:36:57;;;;;;;;;1.00;1.00;;;;;-143.90;35.43;74138.66;4923067;28;101943;-76
2023/08/11 10:39:25;;;;;;;;;1.00;1.00;;;;;-143.90;34.69;74138.66;4926347;28;101988;-76
2023/08/11 10:41:56;;;;;;;;;1.00;1.00;;;;;-143.90;34.51;74161.38;4921445;28;104246;-76
2023/08/11 10:44:28;;;;;;;;;1.00;1.00;;;;;-143.90;34.96;74151.06;4925370;28;102554;-76
2023/08/11 10:47:02;;;;;;;;;1.00;1.00;;;;;-143.90;35.61;74146.91;4906241;28;102130;-76
2023/08/11 10:49:34;;;;;;;;;4.00;3.00;;;;;-143.90;35.66;74157.25;4928235;28;102302;-76
2023/08/11 10:52:03;;;;;;;;;5.00;4.33;;;;;-143.90;37.10;74182.06;4920129;28;108874;-76
2023/08/11 10:54:31;;;;;;;;;5.33;4.33;;;;;-143.90;34.82;74200.66;4926834;28;102264;-77
2023/08/11 10:57:01;;;;;;;;;2.67;2.67;;;;;-143.90;36.16;74184.13;4928147;28;102042;-75
2023/08/11 10:59:30;;;;;;;;;4.00;3.67;;;;;-143.90;35.56;74165.53;4925779;28;101967;-78
2023/08/11 11:01:59;;;;;;;;;1.00;1.00;;;;;-143.90;35.17;74149.00;4924512;28;104368;-76
2023/08/11 11:04:29;;;;;;;;;2.33;2.33;;;;;-143.90;34.41;74134.53;4916489;28;102219;-76
2023/08/11 11:06:58;;;;;;;;;2.00;2.00;;;;;-143.90;35.51;74132.44;4915116;28;102344;-76
2023/08/11 11:09:27;;;;;;;;;4.67;3.00;;;;;-143.90;33.74;74130.38;4920916;28;102421;-77
2023/08/11 11:11:56;;;;;;;;;1.00;1.00;;;;;-143.90;35.62;74113.84;4920376;28;104211;-76
2023/08/11 11:14:24;;;;;;;;;2.00;2.00;;;;;-143.90;36.63;74076.66;4904993;28;103703;-76
2023/08/11 11:16:58;;;;;;;;;2.33;2.00;;;;;-143.90;35.54;74084.91;4893377;28;102791;-76
2023/08/11 11:19:27;;;;;;;;;3.67;3.00;;;;;-143.90;33.52;74130.38;4874359;28;103952;-77